• Join FlightAware (Why Join?)
  • Login
  • US Flag 
12:26PM EDT


 

Airport Tracker/Info


-or-


 

Live Flight TrackerFlight Track Log ✈ KAP624 ✈ 14-Jun-2013 ✈ KACK - KMVY

Flight Track Log - Related Links

Times and Time Zones

All times are in EDT time to prevent confusion due to time zone crossing. See the KAP624 flight status page for this flight to view local times or setup timezone preferences in your user account.

Time Position Orientation Groundspeed Altitude Reporting Facility
EDT Latitude Longitude Course Direction KTS MPH feet Rate Location/Type
07:23AM 41.5804 -70.8405 287° West  Level Estimated
07:24AM 41.5675 -70.8173 127° Southeast  Level FlightAware Approximate
07:25AM 41.5545 -70.7940 127° Southeast  Level FlightAware Approximate
07:26AM 41.5415 -70.7708 127° Southeast  Level FlightAware Approximate
07:27AM 41.5286 -70.7476 127° Southeast  Level FlightAware Approximate
07:28AM 41.5156 -70.7244 127° Southeast  Level FlightAware Approximate
07:29AM 41.5026 -70.7012 127° Southeast  Level FlightAware Approximate
07:30AM 41.4840 -70.6863 270° West  Level Estimated
07:31AM 41.4654 -70.6714 304° West  Level Estimated
07:32AM 41.4522 -70.6484 127° Southeast  Level FlightAware Approximate
07:33AM 41.4390 -70.6255 127° Southeast  Level FlightAware Approximate
07:34AM 41.4177 -70.6201 283° West  Level Estimated
07:35AM 41.3979 -70.6085 156° South  Level FlightAware Approximate
07:36AM 41.3934 -70.6139 156° South  Level Estimated
07:37AM 41.3934 -70.6139 134° Southeast  Level Estimated
07:38AM 41.3934 -70.6139 283° West  Level Estimated
07:39AM 41.3934 -70.6139 283° West  Level Estimated
07:40AM 41.3934 -70.6139 283° West  Level Estimated
07:41AM 41.3934 -70.6139 283° West  Level Estimated
07:42AM 41.3934 -70.6139 283° West  Level Estimated
07:43AM 41.3934 -70.6139 283° West  Level Estimated
07:44AM 41.3934 -70.6139 283° West  Level Estimated
07:45AM 41.3934 -70.6139 283° West  Level Estimated
07:46AM 41.3934 -70.6139 283° West  Level Estimated
07:47AM 41.3934 -70.6139 283° West  Level Estimated
07:48AM 41.3934 -70.6139 283° West  Level Estimated
07:49AM 41.3934 -70.6139 283° West  Level Estimated
07:50AM 41.3934 -70.6139 283° West  Level Estimated
07:51AM 41.3934 -70.6139 283° West  Level Estimated
07:52AM 41.3934 -70.6139 283° West  Level Estimated
07:53AM 41.3934 -70.6139 283° West  Level Estimated